sensor_id;sensor_type;location;lat;lon;timestamp;pressure;altitude;pressure_sealevel;temperature;humidity
23223;BME280;11780;13.904;100.620;2023-08-06T00:01:54;100937.38;;;31.83;63.25
23223;BME280;11780;13.904;100.620;2023-08-06T00:04:24;100933.31;;;31.81;63.00
23223;BME280;11780;13.904;100.620;2023-08-06T00:06:54;100941.44;;;31.77;63.42
23223;BME280;11780;13.904;100.620;2023-08-06T00:09:26;100944.69;;;31.79;63.42
23223;BME280;11780;13.904;100.620;2023-08-06T00:11:56;100942.75;;;31.80;63.50
23223;BME280;11780;13.904;100.620;2023-08-06T00:14:27;100941.44;;;31.77;63.37
23223;BME280;11780;13.904;100.620;2023-08-06T00:16:57;100944.22;;;31.77;63.83
23223;BME280;11780;13.904;100.620;2023-08-06T00:19:28;100949.41;;;31.70;63.83
23223;BME280;11780;13.904;100.620;2023-08-06T00:21:58;100946.97;;;31.77;63.47
23223;BME280;11780;13.904;100.620;2023-08-06T00:24:28;100951.88;;;31.80;63.92
23223;BME280;11780;13.904;100.620;2023-08-06T00:26:59;100955.75;;;31.70;63.91
23223;BME280;11780;13.904;100.620;2023-08-06T00:29:29;100947.47;;;31.79;64.18
23223;BME280;11780;13.904;100.620;2023-08-06T00:31:59;100949.41;;;31.70;63.82
23223;BME280;11780;13.904;100.620;2023-08-06T00:34:31;100955.91;;;31.74;63.76
23223;BME280;11780;13.904;100.620;2023-08-06T00:37:02;100955.25;;;31.68;64.18
23223;BME280;11780;13.904;100.620;2023-08-06T00:39:32;100948.56;;;31.69;64.37
23223;BME280;11780;13.904;100.620;2023-08-06T00:42:03;100960.94;;;31.72;64.20
23223;BME280;11780;13.904;100.620;2023-08-06T00:44:33;100963.22;;;31.70;64.12
23223;BME280;11780;13.904;100.620;2023-08-06T00:47:05;100955.75;;;31.70;64.12
23223;BME280;11780;13.904;100.620;2023-08-06T00:49:37;100956.91;;;31.78;63.57
23223;BME280;11780;13.904;100.620;2023-08-06T00:52:08;100966.00;;;31.70;63.89
23223;BME280;11780;13.904;100.620;2023-08-06T00:54:39;100961.78;;;31.72;63.62
23223;BME280;11780;13.904;100.620;2023-08-06T00:57:11;100969.88;;;31.69;63.64
23223;BME280;11780;13.904;100.620;2023-08-06T00:59:41;100970.09;;;31.72;63.69
23223;BME280;11780;13.904;100.620;2023-08-06T01:02:11;100973.34;;;31.74;63.53
23223;BME280;11780;13.904;100.620;2023-08-06T01:04:42;100979.66;;;31.75;63.80
23223;BME280;11780;13.904;100.620;2023-08-06T01:07:21;100983.44;;;31.79;63.64
23223;BME280;11780;13.904;100.620;2023-08-06T01:10:15;100983.44;;;31.79;63.54
23223;BME280;11780;13.904;100.620;2023-08-06T01:13:18;100980.16;;;31.77;63.62
23223;BME280;11780;13.904;100.620;2023-08-06T01:15:55;100980.16;;;31.77;63.55
23223;BME280;11780;13.904;100.620;2023-08-06T01:18:28;100979.53;;;31.80;62.92
23223;BME280;11780;13.904;100.620;2023-08-06T01:21:01;100973.84;;;31.77;62.87
23223;BME280;11780;13.904;100.620;2023-08-06T01:23:31;100984.06;;;31.76;63.39
23223;BME280;11780;13.904;100.620;2023-08-06T01:29:01;100978.16;;;31.69;62.88
23223;BME280;11780;13.904;100.620;2023-08-06T01:31:37;100982.72;;;31.65;62.83
23223;BME280;11780;13.904;100.620;2023-08-06T01:34:18;100973.16;;;31.71;63.41
23223;BME280;11780;13.904;100.620;2023-08-06T01:36:51;100972.63;;;31.69;63.52
23223;BME280;11780;13.904;100.620;2023-08-06T01:39:21;100979.66;;;31.75;63.74
23223;BME280;11780;13.904;100.620;2023-08-06T01:41:52;100988.81;;;31.76;63.60
23223;BME280;11780;13.904;100.620;2023-08-06T01:44:22;100985.84;;;31.81;63.82
23223;BME280;11780;13.904;100.620;2023-08-06T01:46:53;100989.75;;;31.80;63.54
23223;BME280;11780;13.904;100.620;2023-08-06T01:49:23;100990.59;;;31.89;62.96
23223;BME280;11780;13.904;100.620;2023-08-06T01:51:54;100988.31;;;31.91;62.79
23223;BME280;11780;13.904;100.620;2023-08-06T01:54:24;100988.97;;;31.97;62.78
23223;BME280;11780;13.904;100.620;2023-08-06T01:56:55;101005.72;;;32.00;63.25
23223;BME280;11780;13.904;100.620;2023-08-06T01:59:25;100991.88;;;32.00;63.02
23223;BME280;11780;13.904;100.620;2023-08-06T02:01:55;100989.28;;;32.04;62.98
23223;BME280;11780;13.904;100.620;2023-08-06T02:04:26;100992.69;;;32.10;62.87
23223;BME280;11780;13.904;100.620;2023-08-06T02:06:56;100989.63;;;32.11;62.45
23223;BME280;11780;13.904;100.620;2023-08-06T02:09:27;100992.53;;;32.15;62.22
23223;BME280;11780;13.904;100.620;2023-08-06T02:11:59;100989.75;;;32.15;62.42
23223;BME280;11780;13.904;100.620;2023-08-06T02:14:30;100983.72;;;32.22;62.04
23223;BME280;11780;13.904;100.620;2023-08-06T02:17:00;100985.22;;;32.28;61.87
23223;BME280;11780;13.904;100.620;2023-08-06T02:19:30;100963.22;;;32.23;61.80
23223;BME280;11780;13.904;100.620;2023-08-06T02:22:01;100987.16;;;32.27;62.14
23223;BME280;11780;13.904;100.620;2023-08-06T02:24:32;100984.25;;;32.32;61.97
23223;BME280;11780;13.904;100.620;2023-08-06T02:27:03;100984.25;;;32.32;61.77
23223;BME280;11780;13.904;100.620;2023-08-06T02:29:33;100990.91;;;32.31;62.06
23223;BME280;11780;13.904;100.620;2023-08-06T02:32:04;101001.97;;;32.40;62.09
23223;BME280;11780;13.904;100.620;2023-08-06T02:34:35;101002.97;;;32.44;61.50
23223;BME280;11780;13.904;100.620;2023-08-06T02:37:05;101000.00;;;32.41;61.45
23223;BME280;11780;13.904;100.620;2023-08-06T02:39:36;101001.97;;;32.40;61.56
23223;BME280;11780;13.904;100.620;2023-08-06T02:42:09;101000.50;;;32.34;61.44
23223;BME280;11780;13.904;100.620;2023-08-06T02:44:39;101011.56;;;32.43;61.47
23223;BME280;11780;13.904;100.620;2023-08-06T02:47:10;101010.63;;;32.39;61.19
23223;BME280;11780;13.904;100.620;2023-08-06T02:49:40;101009.63;;;32.43;60.51
23223;BME280;11780;13.904;100.620;2023-08-06T02:52:10;101006.22;;;32.46;61.15
23223;BME280;11780;13.904;100.620;2023-08-06T02:54:41;101005.41;;;32.37;61.26
23223;BME280;11780;13.904;100.620;2023-08-06T02:57:14;100998.38;;;32.40;61.42
23223;BME280;11780;13.904;100.620;2023-08-06T02:59:47;101005.22;;;32.42;61.72
23223;BME280;11780;13.904;100.620;2023-08-06T03:02:20;101010.13;;;32.45;61.07
23223;BME280;11780;13.904;100.620;2023-08-06T03:04:58;101008.50;;;32.44;61.20
23223;BME280;11780;13.904;100.620;2023-08-06T03:07:33;101013.69;;;32.46;61.28
23223;BME280;11780;13.904;100.620;2023-08-06T03:10:11;101006.22;;;32.46;61.19
23223;BME280;11780;13.904;100.620;2023-08-06T03:12:43;101017.59;;;32.45;61.88
23223;BME280;11780;13.904;100.620;2023-08-06T03:15:22;101013.19;;;32.44;62.05
23223;BME280;11780;13.904;100.620;2023-08-06T03:17:55;101006.53;;;32.45;61.76
23223;BME280;11780;13.904;100.620;2023-08-06T03:20:27;101009.44;;;32.48;61.53
23223;BME280;11780;13.904;100.620;2023-08-06T03:22:58;100999.03;;;32.45;61.92
23223;BME280;11780;13.904;100.620;2023-08-06T03:25:30;100995.94;;;32.47;61.81
23223;BME280;11780;13.904;100.620;2023-08-06T03:28:01;100997.41;;;32.53;61.84
23223;BME280;11780;13.904;100.620;2023-08-06T03:30:34;100992.81;;;32.48;61.41
23223;BME280;11780;13.904;100.620;2023-08-06T03:33:05;100996.91;;;32.51;61.30
23223;BME280;11780;13.904;100.620;2023-08-06T03:35:36;100989.91;;;32.54;61.45
23223;BME280;11780;13.904;100.620;2023-08-06T03:38:07;100986.75;;;32.64;61.12
23223;BME280;11780;13.904;100.620;2023-08-06T03:40:37;100980.56;;;32.67;61.28
23223;BME280;11780;13.904;100.620;2023-08-06T03:43:07;100977.00;;;32.67;61.22
23223;BME280;11780;13.904;100.620;2023-08-06T03:45:38;100970.13;;;32.73;61.25
23223;BME280;11780;13.904;100.620;2023-08-06T03:48:10;100963.13;;;32.75;61.21
23223;BME280;11780;13.904;100.620;2023-08-06T03:50:41;100964.56;;;32.73;61.02
23223;BME280;11780;13.904;100.620;2023-08-06T03:53:13;100962.91;;;32.80;60.32
23223;BME280;11780;13.904;100.620;2023-08-06T03:55:44;100958.88;;;32.87;60.17
23223;BME280;11780;13.904;100.620;2023-08-06T03:58:15;100956.22;;;32.90;59.99
23223;BME280;11780;13.904;100.620;2023-08-06T04:00:45;100959.34;;;32.89;59.70
23223;BME280;11780;13.904;100.620;2023-08-06T04:03:16;100952.81;;;32.93;59.41
23223;BME280;11780;13.904;100.620;2023-08-06T04:05:46;100955.25;;;32.86;60.20
23223;BME280;11780;13.904;100.620;2023-08-06T04:08:17;100947.66;;;32.83;60.80
23223;BME280;11780;13.904;100.620;2023-08-06T04:10:52;100936.69;;;32.87;60.57
23223;BME280;11780;13.904;100.620;2023-08-06T04:13:22;100937.66;;;32.91;59.95
23223;BME280;11780;13.904;100.620;2023-08-06T04:15:53;100931.59;;;32.98;59.25
23223;BME280;11780;13.904;100.620;2023-08-06T04:18:23;100933.53;;;32.97;59.62
23223;BME280;11780;13.904;100.620;2023-08-06T14:34:38;100928.25;;;32.00;66.77
23223;BME280;11780;13.904;100.620;2023-08-06T14:37:09;100927.75;;;32.07;66.70
23223;BME280;11780;13.904;100.620;2023-08-06T14:39:40;100928.22;;;32.18;66.19
23223;BME280;11780;13.904;100.620;2023-08-06T14:42:11;100937.84;;;32.29;66.04
23223;BME280;11780;13.904;100.620;2023-08-06T14:44:41;100937.66;;;32.34;65.85
23223;BME280;11780;13.904;100.620;2023-08-06T14:47:11;100942.03;;;32.44;65.65
23223;BME280;11780;13.904;100.620;2023-08-06T14:49:42;100950.97;;;32.50;65.11
23223;BME280;11780;13.904;100.620;2023-08-06T14:52:12;100941.03;;;32.58;65.16
23223;BME280;11780;13.904;100.620;2023-08-06T14:54:43;100944.75;;;32.62;64.73
23223;BME280;11780;13.904;100.620;2023-08-06T14:57:13;100947.34;;;32.67;64.60
23223;BME280;11780;13.904;100.620;2023-08-06T14:59:44;100948.31;;;32.71;64.32
23223;BME280;11780;13.904;100.620;2023-08-06T15:02:14;100943.25;;;32.73;64.25
23223;BME280;11780;13.904;100.620;2023-08-06T15:04:45;100944.88;;;32.74;64.17
23223;BME280;11780;13.904;100.620;2023-08-06T15:07:15;100940.97;;;32.75;64.13
23223;BME280;11780;13.904;100.620;2023-08-06T15:09:45;100943.38;;;32.77;64.08
23223;BME280;11780;13.904;100.620;2023-08-06T15:12:36;100946.97;;;32.77;64.05
23223;BME280;11780;13.904;100.620;2023-08-06T15:15:09;100939.13;;;32.79;63.58
23223;BME280;11780;13.904;100.620;2023-08-06T15:17:39;100940.63;;;32.77;63.63
23223;BME280;11780;13.904;100.620;2023-08-06T15:20:10;100934.72;;;32.78;63.49
23223;BME280;11780;13.904;100.620;2023-08-06T15:22:40;100938.84;;;32.81;63.36
23223;BME280;11780;13.904;100.620;2023-08-06T15:25:11;100933.13;;;32.77;63.60
23223;BME280;11780;13.904;100.620;2023-08-06T15:27:41;100930.81;;;32.79;63.55
23223;BME280;11780;13.904;100.620;2023-08-06T15:30:12;100933.94;;;32.78;63.45
23223;BME280;11780;13.904;100.620;2023-08-06T15:32:42;100919.75;;;32.79;63.33
23223;BME280;11780;13.904;100.620;2023-08-06T15:35:14;100918.13;;;32.78;62.52
23223;BME280;11780;13.904;100.620;2023-08-06T15:37:45;100912.56;;;32.78;63.08
23223;BME280;11780;13.904;100.620;2023-08-06T15:40:16;100923.50;;;32.75;63.25
23223;BME280;11780;13.904;100.620;2023-08-06T15:42:46;100912.13;;;32.76;62.48
23223;BME280;11780;13.904;100.620;2023-08-06T15:45:16;100912.56;;;32.78;62.29
23223;BME280;11780;13.904;100.620;2023-08-06T15:47:47;100918.31;;;32.73;62.26
23223;BME280;11780;13.904;100.620;2023-08-06T15:50:17;100911.63;;;32.74;62.16
23223;BME280;11780;13.904;100.620;2023-08-06T15:52:47;100912.44;;;32.75;62.17
23223;BME280;11780;13.904;100.620;2023-08-06T15:55:18;100910.16;;;32.77;61.96
23223;BME280;11780;13.904;100.620;2023-08-06T15:57:49;100916.16;;;32.79;62.31
23223;BME280;11780;13.904;100.620;2023-08-06T16:00:19;100904.94;;;32.75;61.66
23223;BME280;11780;13.904;100.620;2023-08-06T16:02:50;100897.97;;;32.69;62.08
23223;BME280;11780;13.904;100.620;2023-08-06T16:05:20;100894.53;;;32.72;62.62
23223;BME280;11780;13.904;100.620;2023-08-06T16:07:51;100901.69;;;32.73;62.70
23223;BME280;11780;13.904;100.620;2023-08-06T16:10:21;100890.94;;;32.72;62.29
23223;BME280;11780;13.904;100.620;2023-08-06T16:12:52;100889.31;;;32.71;61.81
23223;BME280;11780;13.904;100.620;2023-08-06T16:15:23;100885.25;;;32.68;62.23
23223;BME280;11780;13.904;100.620;2023-08-06T16:17:53;100881.81;;;32.71;61.98
23223;BME280;11780;13.904;100.620;2023-08-06T16:20:23;100892.06;;;32.71;62.51
23223;BME280;11780;13.904;100.620;2023-08-06T16:22:54;100881.34;;;32.69;62.48
23223;BME280;11780;13.904;100.620;2023-08-06T16:25:25;100886.75;;;32.65;62.41
23223;BME280;11780;13.904;100.620;2023-08-06T16:27:55;100885.13;;;32.64;62.75
23223;BME280;11780;13.904;100.620;2023-08-06T16:30:25;100883.97;;;32.65;62.68
23223;BME280;11780;13.904;100.620;2023-08-06T16:32:55;100874.03;;;32.64;62.52
23223;BME280;11780;13.904;100.620;2023-08-06T16:35:27;100878.91;;;32.68;62.73
23223;BME280;11780;13.904;100.620;2023-08-06T16:37:58;100872.06;;;32.65;62.72
23223;BME280;11780;13.904;100.620;2023-08-06T16:40:29;100875.31;;;32.67;62.88
23223;BME280;11780;13.904;100.620;2023-08-06T16:43:00;100877.13;;;32.63;62.73
23223;BME280;11780;13.904;100.620;2023-08-06T16:45:30;100876.16;;;32.68;62.57
23223;BME280;11780;13.904;100.620;2023-08-06T16:48:04;100882.00;;;32.66;62.69
23223;BME280;11780;13.904;100.620;2023-08-06T16:50:37;100877.28;;;32.67;62.70
23223;BME280;11780;13.904;100.620;2023-08-06T16:53:07;100880.06;;;32.67;62.74
23223;BME280;11780;13.904;100.620;2023-08-06T16:55:39;100869.78;;;32.67;62.85
23223;BME280;11780;13.904;100.620;2023-08-06T16:58:10;100868.16;;;32.66;62.80
23223;BME280;11780;13.904;100.620;2023-08-06T17:00:40;100876.16;;;32.68;62.63
23223;BME280;11780;13.904;100.620;2023-08-06T17:03:10;100876.66;;;32.61;62.87
23223;BME280;11780;13.904;100.620;2023-08-06T17:05:40;100873.69;;;32.66;62.88
23223;BME280;11780;13.904;100.620;2023-08-06T17:08:11;100867.69;;;32.64;62.95
23223;BME280;11780;13.904;100.620;2023-08-06T17:10:41;100867.69;;;32.64;62.90
23223;BME280;11780;13.904;100.620;2023-08-06T17:13:12;100862.47;;;32.62;62.74
23223;BME280;11780;13.904;100.620;2023-08-06T17:15:48;100863.28;;;32.63;62.71
23223;BME280;11780;13.904;100.620;2023-08-06T17:18:18;100862.97;;;32.64;62.73
23223;BME280;11780;13.904;100.620;2023-08-06T17:20:49;100860.06;;;32.61;63.02
23223;BME280;11780;13.904;100.620;2023-08-06T17:23:19;100861.50;;;32.58;62.88
23223;BME280;11780;13.904;100.620;2023-08-06T17:25:50;100854.84;;;32.59;62.77
23223;BME280;11780;13.904;100.620;2023-08-06T17:28:20;100858.56;;;32.63;62.70
23223;BME280;11780;13.904;100.620;2023-08-06T17:30:51;100851.75;;;32.61;63.02
23223;BME280;11780;13.904;100.620;2023-08-06T17:33:21;100852.91;;;32.60;62.91
23223;BME280;11780;13.904;100.620;2023-08-06T17:35:51;100839.22;;;32.55;62.58
23223;BME280;11780;13.904;100.620;2023-08-06T17:38:22;100842.97;;;32.59;62.88
23223;BME280;11780;13.904;100.620;2023-08-06T17:40:53;100834.00;;;32.62;62.57
23223;BME280;11780;13.904;100.620;2023-08-06T17:43:25;100830.25;;;32.58;62.67
23223;BME280;11780;13.904;100.620;2023-08-06T17:45:55;100828.78;;;32.60;62.44
23223;BME280;11780;13.904;100.620;2023-08-06T17:48:25;100827.00;;;32.56;62.44
23223;BME280;11780;13.904;100.620;2023-08-06T17:50:56;100821.94;;;32.58;62.63
23223;BME280;11780;13.904;100.620;2023-08-06T17:53:26;100815.28;;;32.59;62.60
23223;BME280;11780;13.904;100.620;2023-08-06T17:55:56;100807.16;;;32.54;62.52
23223;BME280;11780;13.904;100.620;2023-08-06T17:58:30;100808.63;;;32.51;62.38
23223;BME280;11780;13.904;100.620;2023-08-06T18:01:00;100796.06;;;32.54;62.52
23223;BME280;11780;13.904;100.620;2023-08-06T18:03:31;100798.34;;;32.52;62.31
23223;BME280;11780;13.904;100.620;2023-08-06T18:06:02;100780.78;;;32.47;62.68
23223;BME280;11780;13.904;100.620;2023-08-06T18:08:32;100784.72;;;32.46;62.52
23223;BME280;11780;13.904;100.620;2023-08-06T18:11:02;100789.91;;;32.48;61.86
23223;BME280;11780;13.904;100.620;2023-08-06T18:13:33;100790.41;;;32.50;62.53
23223;BME280;11780;13.904;100.620;2023-08-06T18:16:04;100786.00;;;32.49;62.76
23223;BME280;11780;13.904;100.620;2023-08-06T18:18:35;100781.59;;;32.48;62.50
23223;BME280;11780;13.904;100.620;2023-08-06T18:21:05;100773.78;;;32.50;62.30
23223;BME280;11780;13.904;100.620;2023-08-06T18:23:35;100776.19;;;32.52;62.32
23223;BME280;11780;13.904;100.620;2023-08-06T18:26:07;100773.31;;;32.48;62.29
23223;BME280;11780;13.904;100.620;2023-08-06T18:28:38;100771.31;;;32.48;62.20
23223;BME280;11780;13.904;100.620;2023-08-06T18:31:11;100765.00;;;32.48;62.69
23223;BME280;11780;13.904;100.620;2023-08-06T18:33:41;100756.69;;;32.48;62.66
23223;BME280;11780;13.904;100.620;2023-08-06T18:36:12;100763.84;;;32.49;62.71
23223;BME280;11780;13.904;100.620;2023-08-06T18:38:42;100748.38;;;32.48;62.51
23223;BME280;11780;13.904;100.620;2023-08-06T18:41:13;100750.00;;;32.49;62.39
23223;BME280;11780;13.904;100.620;2023-08-06T18:43:43;100755.84;;;32.47;62.17
23223;BME280;11780;13.904;100.620;2023-08-06T18:46:14;100749.19;;;32.48;62.53
23223;BME280;11780;13.904;100.620;2023-08-06T18:48:45;100751.16;;;32.48;62.25
23223;BME280;11780;13.904;100.620;2023-08-06T18:51:16;100735.81;;;32.50;62.49
23223;BME280;11780;13.904;100.620;2023-08-06T18:53:48;100740.41;;;32.46;62.64
23223;BME280;11780;13.904;100.620;2023-08-06T18:56:18;100737.31;;;32.48;62.50
23223;BME280;11780;13.904;100.620;2023-08-06T18:58:48;100737.66;;;32.46;62.39
23223;BME280;11780;13.904;100.620;2023-08-06T19:01:19;100732.56;;;32.48;62.41
23223;BME280;11780;13.904;100.620;2023-08-06T19:03:50;100739.25;;;32.47;62.23
23223;BME280;11780;13.904;100.620;2023-08-06T19:06:20;100727.38;;;32.47;62.49
23223;BME280;11780;13.904;100.620;2023-08-06T19:08:53;100729.34;;;32.46;62.29
23223;BME280;11780;13.904;100.620;2023-08-06T19:11:24;100716.97;;;32.44;62.12
23223;BME280;11780;13.904;100.620;2023-08-06T19:13:54;100719.88;;;32.47;62.10
23223;BME280;11780;13.904;100.620;2023-08-06T19:16:24;100712.75;;;32.46;62.12
23223;BME280;11780;13.904;100.620;2023-08-06T19:18:55;100710.28;;;32.45;61.93
23223;BME280;11780;13.904;100.620;2023-08-06T19:21:25;100708.66;;;32.44;61.94
23223;BME280;11780;13.904;100.620;2023-08-06T19:23:56;100699.22;;;32.45;61.84
23223;BME280;11780;13.904;100.620;2023-08-06T19:26:27;100693.19;;;32.43;61.72
23223;BME280;11780;13.904;100.620;2023-08-06T19:28:58;100688.97;;;32.45;61.77
23223;BME280;11780;13.904;100.620;2023-08-06T19:31:29;100681.66;;;32.41;61.77
23223;BME280;11780;13.904;100.620;2023-08-06T19:33:59;100682.00;;;32.39;61.86
23223;BME280;11780;13.904;100.620;2023-08-06T19:36:30;100681.88;;;32.36;61.30
23223;BME280;11780;13.904;100.620;2023-08-06T19:39:01;100683.63;;;32.40;61.44
23223;BME280;11780;13.904;100.620;2023-08-06T19:41:31;100676.59;;;32.43;61.72
23223;BME280;11780;13.904;100.620;2023-08-06T19:44:02;100682.00;;;32.39;61.52
23223;BME280;11780;13.904;100.620;2023-08-06T19:46:32;100682.47;;;32.41;61.33
23223;BME280;11780;13.904;100.620;2023-08-06T19:49:03;100683.13;;;32.38;61.64
23223;BME280;11780;13.904;100.620;2023-08-06T19:51:33;100686.88;;;32.42;61.63
23223;BME280;11780;13.904;100.620;2023-08-06T19:54:11;100687.19;;;32.41;61.51
23223;BME280;11780;13.904;100.620;2023-08-06T19:56:42;100686.38;;;32.40;61.37
23223;BME280;11780;13.904;100.620;2023-08-06T19:59:12;100686.72;;;32.39;61.27
23223;BME280;11780;13.904;100.620;2023-08-06T20:01:42;100684.75;;;32.39;61.26
23223;BME280;11780;13.904;100.620;2023-08-06T20:04:14;100691.63;;;32.33;61.35
23223;BME280;11780;13.904;100.620;2023-08-06T20:06:45;100697.31;;;32.37;61.35
23223;BME280;11780;13.904;100.620;2023-08-06T20:09:18;100690.66;;;32.38;61.30
23223;BME280;11780;13.904;100.620;2023-08-06T20:11:48;100696.97;;;32.38;60.78
23223;BME280;11780;13.904;100.620;2023-08-06T20:14:19;100697.16;;;32.33;61.21
23223;BME280;11780;13.904;100.620;2023-08-06T20:16:50;100697.16;;;32.33;61.15
23223;BME280;11780;13.904;100.620;2023-08-06T20:19:20;100705.94;;;32.35;61.21
23223;BME280;11780;13.904;100.620;2023-08-06T20:21:51;100694.88;;;32.35;61.18
23223;BME280;11780;13.904;100.620;2023-08-06T20:24:22;100698.00;;;32.33;61.37
23223;BME280;11780;13.904;100.620;2023-08-06T20:26:52;100700.16;;;32.28;60.89
23223;BME280;11780;13.904;100.620;2023-08-06T20:29:23;100695.53;;;32.32;60.96
23223;BME280;11780;13.904;100.620;2023-08-06T20:31:53;100697.50;;;32.31;60.45
23223;BME280;11780;13.904;100.620;2023-08-06T20:34:24;100699.47;;;32.31;60.99
23223;BME280;11780;13.904;100.620;2023-08-06T20:36:54;100692.31;;;32.30;60.45
23223;BME280;11780;13.904;100.620;2023-08-06T20:39:26;100691.84;;;32.28;60.87
23223;BME280;11780;13.904;100.620;2023-08-06T20:41:56;100693.78;;;32.27;60.87
23223;BME280;11780;13.904;100.620;2023-08-06T20:44:27;100691.84;;;32.28;61.15
23223;BME280;11780;13.904;100.620;2023-08-06T20:46:59;100692.31;;;32.30;61.03
23223;BME280;11780;13.904;100.620;2023-08-06T20:49:29;100706.16;;;32.30;61.13
23223;BME280;11780;13.904;100.620;2023-08-06T20:52:00;100705.03;;;32.31;61.06
23223;BME280;11780;13.904;100.620;2023-08-06T20:54:32;100705.69;;;32.28;61.20
23223;BME280;11780;13.904;100.620;2023-08-06T20:57:03;100700.94;;;32.28;61.60
23223;BME280;11780;13.904;100.620;2023-08-06T20:59:33;100704.06;;;32.27;61.32
23223;BME280;11780;13.904;100.620;2023-08-06T21:02:03;100709.59;;;32.27;61.22
23223;BME280;11780;13.904;100.620;2023-08-06T21:04:34;100707.31;;;32.29;61.51
23223;BME280;11780;13.904;100.620;2023-08-06T21:07:05;100715.94;;;32.27;61.39
23223;BME280;11780;13.904;100.620;2023-08-06T21:09:36;100727.34;;;32.26;61.25
23223;BME280;11780;13.904;100.620;2023-08-06T21:12:07;100721.81;;;32.26;61.25
23223;BME280;11780;13.904;100.620;2023-08-06T21:14:37;100716.28;;;32.26;60.88
23223;BME280;11780;13.904;100.620;2023-08-06T21:17:07;100718.53;;;32.24;61.03
23223;BME280;11780;13.904;100.620;2023-08-06T21:19:38;100721.47;;;32.27;61.01
23223;BME280;11780;13.904;100.620;2023-08-06T21:22:08;100720.16;;;32.25;61.19
23223;BME280;11780;13.904;100.620;2023-08-06T21:24:39;100719.03;;;32.26;61.41
23223;BME280;11780;13.904;100.620;2023-08-06T21:27:09;100715.41;;;32.25;61.36
23223;BME280;11780;13.904;100.620;2023-08-06T21:29:40;100714.97;;;32.23;61.14
23223;BME280;11780;13.904;100.620;2023-08-06T21:32:12;100714.63;;;32.25;61.24
23223;BME280;11780;13.904;100.620;2023-08-06T21:34:42;100714.63;;;32.25;61.06
23223;BME280;11780;13.904;100.620;2023-08-06T21:37:14;100716.91;;;32.23;60.96
23223;BME280;11780;13.904;100.620;2023-08-06T21:39:44;100714.97;;;32.23;61.13
23223;BME280;11780;13.904;100.620;2023-08-06T21:42:15;100718.38;;;32.20;60.84
23223;BME280;11780;13.904;100.620;2023-08-06T21:44:45;100720.66;;;32.27;61.10
23223;BME280;11780;13.904;100.620;2023-08-06T21:47:16;100723.59;;;32.22;60.92
23223;BME280;11780;13.904;100.620;2023-08-06T21:49:46;100713.16;;;32.18;61.17
23223;BME280;11780;13.904;100.620;2023-08-06T21:52:16;100724.06;;;32.24;61.01
23223;BME280;11780;13.904;100.620;2023-08-06T21:54:46;100721.28;;;32.24;61.21
23223;BME280;11780;13.904;100.620;2023-08-06T21:57:16;100714.00;;;32.19;61.28
23223;BME280;11780;13.904;100.620;2023-08-06T21:59:47;100716.41;;;32.20;61.45
23223;BME280;11780;13.904;100.620;2023-08-06T22:02:17;100712.50;;;32.22;61.17
23223;BME280;11780;13.904;100.620;2023-08-06T22:04:48;100720.00;;;32.21;61.41
23223;BME280;11780;13.904;100.620;2023-08-06T22:07:18;100719.31;;;32.24;61.00
23223;BME280;11780;13.904;100.620;2023-08-06T22:09:48;100714.63;;;32.25;61.08
23223;BME280;11780;13.904;100.620;2023-08-06T22:12:19;100719.53;;;32.19;61.65
23223;BME280;11780;13.904;100.620;2023-08-06T22:14:49;100725.56;;;32.21;60.95
23223;BME280;11780;13.904;100.620;2023-08-06T22:17:19;100723.09;;;32.19;61.13
23223;BME280;11780;13.904;100.620;2023-08-06T22:19:50;100717.91;;;32.18;61.86
23223;BME280;11780;13.904;100.620;2023-08-06T22:22:20;100718.03;;;32.22;62.07
23223;BME280;11780;13.904;100.620;2023-08-06T22:24:51;100729.13;;;32.22;61.53
23223;BME280;11780;13.904;100.620;2023-08-06T22:27:21;100727.63;;;32.24;61.55
23223;BME280;11780;13.904;100.620;2023-08-06T22:29:51;100727.69;;;32.15;62.09
23223;BME280;11780;13.904;100.620;2023-08-06T22:32:22;100730.13;;;32.17;61.90
23223;BME280;11780;13.904;100.620;2023-08-06T22:34:52;100738.06;;;32.18;61.81
23223;BME280;11780;13.904;100.620;2023-08-06T22:37:24;100735.47;;;32.22;61.58
23223;BME280;11780;13.904;100.620;2023-08-06T22:39:55;100737.28;;;32.18;61.81
23223;BME280;11780;13.904;100.620;2023-08-06T22:42:29;100738.56;;;32.20;61.80
23223;BME280;11780;13.904;100.620;2023-08-06T22:45:14;100745.25;;;32.19;61.42
23223;BME280;11780;13.904;100.620;2023-08-06T22:47:44;100744.31;;;32.15;61.68
23223;BME280;11780;13.904;100.620;2023-08-06T22:50:15;100749.63;;;32.20;61.77
23223;BME280;11780;13.904;100.620;2023-08-06T22:52:45;100749.50;;;32.17;61.37
23223;BME280;11780;13.904;100.620;2023-08-06T22:55:15;100744.44;;;32.19;61.18
23223;BME280;11780;13.904;100.620;2023-08-06T22:58:06;100750.16;;;32.14;61.37
23223;BME280;11780;13.904;100.620;2023-08-06T23:00:36;100746.91;;;32.12;61.47
23223;BME280;11780;13.904;100.620;2023-08-06T23:03:07;100761.34;;;32.17;61.23
23223;BME280;11780;13.904;100.620;2023-08-06T23:05:39;100755.81;;;32.17;60.98
23223;BME280;11780;13.904;100.620;2023-08-06T23:08:10;100757.78;;;32.17;61.22